This is the latest recevied weather packets stored in our database for station/object F8BJE-13. If no packets are shown the sender has not sent any weather packets the latest 10 day(s).
| Time | Temp. | Humidity | Pressure | Rain* | Wind** | Luminosity | Snow |
|---|---|---|---|---|---|---|---|
| 1777561824 | 27.22° C | 28% | 1017.7 hPa | 0 mm | - | - | - |
| 1777560024 | 27.22° C | 28% | 1017.6 hPa | 0 mm | - | - | - |
| 1777558224 | 27.22° C | 30% | 1017.9 hPa | 0 mm | - | - | - |
| 1777556423 | 26.67° C | 29% | 1018.3 hPa | 0 mm | - | - | - |
| 1777554623 | 25.56° C | 28% | 1018.2 hPa | 0 mm | - | - | - |
| 1777552823 | 26.67° C | 29% | 1018.4 hPa | 0 mm | - | - | - |
| 1777551023 | 26.67° C | 28% | 1018.7 hPa | 0 mm | - | - | - |
| 1777549223 | 23.89° C | 32% | 1018.8 hPa | 0 mm | - | - | - |
| 1777547423 | 24.44° C | 32% | 1018.8 hPa | 0 mm | - | - | - |
| 1777545623 | 22.78° C | 32% | 1019.2 hPa | 0 mm | - | - | - |
| 1777543824 | 23.33° C | 31% | 1019.3 hPa | 0 mm | - | - | - |
| 1777542024 | 22.78° C | 30% | 1019.2 hPa | 0 mm | - | - | - |
| 1777540224 | 21.67° C | 30% | 1019.3 hPa | 0 mm | - | - | - |
| 1777538425 | 21.11° C | 30% | 1019.3 hPa | 0 mm | - | - | - |
| 1777536624 | 19.44° C | 33% | 1019.3 hPa | 0 mm | - | - | - |
| 1777534825 | 18.33° C | 34% | 1019.1 hPa | 0 mm | - | - | - |
| 1777533025 | 16.67° C | 35% | 1019.1 hPa | 0 mm | - | - | - |
| 1777531223 | 15.56° C | 37% | 1018.7 hPa | 0 mm | - | - | - |
| 1777529423 | 13.89° C | 43% | 1018.8 hPa | 0 mm | - | - | - |
| 1777527623 | 9.44° C | 60% | 1018.9 hPa | 0 mm | - | - | - |
| 1777525823 | 7.78° C | 61% | 1018.5 hPa | 0 mm | - | - | - |
| 1777524023 | 7.78° C | 61% | 1018.4 hPa | 0 mm | - | - | - |
| 1777522225 | 7.78° C | 62% | 1018.1 hPa | 0 mm | - | - | - |
| 1777520425 | 8.33° C | 62% | 1018 hPa | 0 mm | - | - | - |
| 1777518625 | 8.33° C | 62% | 1018 hPa | 0 mm | - | - | - |
* Rain latest hour (hover to see other rain measurements)
** Current wind speed in m/s (hover to see current wind gust speed)